sensor_id;sensor_type;location;lat;lon;timestamp;pressure;altitude;pressure_sealevel;temperature;humidity
72896;BME280;61036;53.224;6.554;2023-09-30T00:02:06;102336.56;;;17.76;100.00
72896;BME280;61036;53.224;6.554;2023-09-30T00:04:32;102343.00;;;17.53;100.00
72896;BME280;61036;53.224;6.554;2023-09-30T00:06:58;102341.53;;;17.60;100.00
72896;BME280;61036;53.224;6.554;2023-09-30T00:09:24;102333.22;;;17.50;100.00
72896;BME280;61036;53.224;6.554;2023-09-30T00:11:50;102336.69;;;17.30;100.00
72896;BME280;61036;53.224;6.554;2023-09-30T00:14:15;102332.25;;;17.51;100.00
72896;BME280;61036;53.224;6.554;2023-09-30T00:16:42;102337.78;;;17.38;100.00
72896;BME280;61036;53.224;6.554;2023-09-30T00:19:08;102336.31;;;17.46;100.00
72896;BME280;61036;53.224;6.554;2023-09-30T00:21:35;102333.72;;;17.67;100.00
72896;BME280;61036;53.224;6.554;2023-09-30T00:24:00;102336.44;;;17.55;100.00
72896;BME280;61036;53.224;6.554;2023-09-30T00:26:26;102336.56;;;17.65;100.00
72896;BME280;61036;53.224;6.554;2023-09-30T00:28:51;102332.84;;;17.66;100.00
72896;BME280;61036;53.224;6.554;2023-09-30T00:31:17;102328.88;;;17.93;100.00
72896;BME280;61036;53.224;6.554;2023-09-30T00:33:42;102326.91;;;17.83;100.00
72896;BME280;61036;53.224;6.554;2023-09-30T00:36:11;102326.44;;;18.33;100.00
72896;BME280;61036;53.224;6.554;2023-09-30T00:38:38;102333.84;;;17.88;100.00
72896;BME280;61036;53.224;6.554;2023-09-30T00:41:04;102338.66;;;18.07;100.00
72896;BME280;61036;53.224;6.554;2023-09-30T00:43:29;102335.66;;;18.10;100.00
72896;BME280;61036;53.224;6.554;2023-09-30T00:46:29;102327.28;;;18.34;100.00
72896;BME280;61036;53.224;6.554;2023-09-30T00:48:55;102336.28;;;18.02;100.00
72896;BME280;61036;53.224;6.554;2023-09-30T00:51:22;102337.19;;;18.02;100.00
72896;BME280;61036;53.224;6.554;2023-09-30T00:53:50;102346.75;;;17.97;100.00
72896;BME280;61036;53.224;6.554;2023-09-30T00:56:17;102348.22;;;17.67;100.00
72896;BME280;61036;53.224;6.554;2023-09-30T00:58:45;102346.13;;;17.71;100.00
72896;BME280;61036;53.224;6.554;2023-09-30T01:01:12;102341.03;;;17.66;100.00
72896;BME280;61036;53.224;6.554;2023-09-30T01:03:38;102338.06;;;17.69;100.00
72896;BME280;61036;53.224;6.554;2023-09-30T01:06:04;102349.97;;;17.57;100.00
72896;BME280;61036;53.224;6.554;2023-09-30T01:08:31;102350.22;;;17.88;100.00
72896;BME280;61036;53.224;6.554;2023-09-30T01:10:58;102363.47;;;17.70;100.00
72896;BME280;61036;53.224;6.554;2023-09-30T01:13:31;102369.19;;;18.00;100.00
72896;BME280;61036;53.224;6.554;2023-09-30T01:15:57;102370.66;;;17.59;100.00
72896;BME280;61036;53.224;6.554;2023-09-30T01:18:24;102371.16;;;17.76;100.00
72896;BME280;61036;53.224;6.554;2023-09-30T01:20:51;102379.59;;;17.50;100.00
72896;BME280;61036;53.224;6.554;2023-09-30T01:23:17;102376.47;;;17.21;100.00
72896;BME280;61036;53.224;6.554;2023-09-30T01:25:45;102380.31;;;17.30;100.00
72896;BME280;61036;53.224;6.554;2023-09-30T01:28:10;102375.38;;;17.46;100.00
72896;BME280;61036;53.224;6.554;2023-09-30T01:30:36;102374.75;;;17.43;100.00
72896;BME280;61036;53.224;6.554;2023-09-30T01:33:01;102377.50;;;17.54;100.00
72896;BME280;61036;53.224;6.554;2023-09-30T01:35:27;102379.84;;;17.36;100.00
72896;BME280;61036;53.224;6.554;2023-09-30T01:37:52;102380.09;;;17.33;100.00
72896;BME280;61036;53.224;6.554;2023-09-30T01:40:18;102380.22;;;17.43;100.00
72896;BME280;61036;53.224;6.554;2023-09-30T01:42:43;102375.09;;;17.16;100.00
72896;BME280;61036;53.224;6.554;2023-09-30T01:45:09;102375.00;;;17.51;100.00
72896;BME280;61036;53.224;6.554;2023-09-30T01:47:35;102368.31;;;17.44;100.00
72896;BME280;61036;53.224;6.554;2023-09-30T01:50:01;102371.03;;;17.44;100.00
72896;BME280;61036;53.224;6.554;2023-09-30T01:52:26;102363.84;;;17.43;100.00
72896;BME280;61036;53.224;6.554;2023-09-30T01:54:52;102362.34;;;17.50;100.00
72896;BME280;61036;53.224;6.554;2023-09-30T01:57:19;102364.97;;;17.51;100.00
72896;BME280;61036;53.224;6.554;2023-09-30T01:59:45;102366.19;;;17.47;100.00
72896;BME280;61036;53.224;6.554;2023-09-30T02:02:10;102376.59;;;17.53;100.00
72896;BME280;61036;53.224;6.554;2023-09-30T02:04:36;102368.53;;;17.29;100.00
72896;BME280;61036;53.224;6.554;2023-09-30T02:07:02;102383.09;;;17.64;100.00
72896;BME280;61036;53.224;6.554;2023-09-30T02:09:27;102374.88;;;17.52;100.00
72896;BME280;61036;53.224;6.554;2023-09-30T02:11:53;102369.44;;;17.64;100.00
72896;BME280;61036;53.224;6.554;2023-09-30T02:14:20;102373.25;;;17.50;100.00
72896;BME280;61036;53.224;6.554;2023-09-30T02:16:45;102376.75;;;17.63;100.00
72896;BME280;61036;53.224;6.554;2023-09-30T02:19:11;102379.84;;;17.70;100.00
72896;BME280;61036;53.224;6.554;2023-09-30T02:21:38;102378.34;;;17.77;100.00
72896;BME280;61036;53.224;6.554;2023-09-30T02:24:04;102376.88;;;17.95;100.00
72896;BME280;61036;53.224;6.554;2023-09-30T02:26:32;102375.41;;;17.91;100.00
72896;BME280;61036;53.224;6.554;2023-09-30T02:28:58;102389.16;;;17.90;100.00
72896;BME280;61036;53.224;6.554;2023-09-30T02:31:24;102382.06;;;18.21;100.00
72896;BME280;61036;53.224;6.554;2023-09-30T02:33:49;102382.69;;;18.02;100.00
72896;BME280;61036;53.224;6.554;2023-09-30T02:36:15;102385.56;;;18.12;100.00
72896;BME280;61036;53.224;6.554;2023-09-30T02:38:42;102385.06;;;18.07;100.00
72896;BME280;61036;53.224;6.554;2023-09-30T02:41:09;102388.03;;;18.15;100.00
72896;BME280;61036;53.224;6.554;2023-09-30T02:43:34;102386.28;;;18.14;100.00
72896;BME280;61036;53.224;6.554;2023-09-30T02:46:00;102381.31;;;18.19;100.00
72896;BME280;61036;53.224;6.554;2023-09-30T02:48:25;102385.25;;;18.26;100.00
72896;BME280;61036;53.224;6.554;2023-09-30T02:50:52;102378.59;;;18.08;100.00
72896;BME280;61036;53.224;6.554;2023-09-30T02:53:17;102379.50;;;18.08;100.00
72896;BME280;61036;53.224;6.554;2023-09-30T02:55:43;102376.41;;;17.90;100.00
72896;BME280;61036;53.224;6.554;2023-09-30T02:58:10;102377.75;;;17.96;100.00
72896;BME280;61036;53.224;6.554;2023-09-30T03:00:36;102371.56;;;17.94;100.00
72896;BME280;61036;53.224;6.554;2023-09-30T03:03:03;102373.72;;;18.22;100.00
72896;BME280;61036;53.224;6.554;2023-09-30T03:05:29;102370.66;;;18.16;100.00
72896;BME280;61036;53.224;6.554;2023-09-30T03:07:59;102374.56;;;18.45;100.00
72896;BME280;61036;53.224;6.554;2023-09-30T03:10:25;102372.88;;;18.11;100.00
72896;BME280;61036;53.224;6.554;2023-09-30T03:12:57;102374.16;;;18.50;100.00
72896;BME280;61036;53.224;6.554;2023-09-30T03:15:29;102369.78;;;18.15;100.00
72896;BME280;61036;53.224;6.554;2023-09-30T03:17:58;102379.34;;;18.10;100.00
72896;BME280;61036;53.224;6.554;2023-09-30T03:20:25;102385.41;;;18.13;100.00
72896;BME280;61036;53.224;6.554;2023-09-30T03:22:51;102377.47;;;18.10;100.00
72896;BME280;61036;53.224;6.554;2023-09-30T03:25:19;102379.59;;;18.18;100.00
72896;BME280;61036;53.224;6.554;2023-09-30T03:27:46;102379.25;;;18.00;100.00
72896;BME280;61036;53.224;6.554;2023-09-30T03:30:13;102383.81;;;18.11;100.00
72896;BME280;61036;53.224;6.554;2023-09-30T03:32:39;102374.38;;;18.15;100.00
72896;BME280;61036;53.224;6.554;2023-09-30T03:35:06;102378.06;;;18.25;100.00
72896;BME280;61036;53.224;6.554;2023-09-30T03:37:32;102375.50;;;17.67;100.00
72896;BME280;61036;53.224;6.554;2023-09-30T03:39:58;102386.81;;;17.85;100.00
72896;BME280;61036;53.224;6.554;2023-09-30T03:42:23;102376.66;;;17.87;100.00
72896;BME280;61036;53.224;6.554;2023-09-30T03:44:49;102383.44;;;18.04;100.00
72896;BME280;61036;53.224;6.554;2023-09-30T03:47:15;102383.88;;;18.32;100.00
72896;BME280;61036;53.224;6.554;2023-09-30T03:49:42;102381.22;;;18.20;100.00
72896;BME280;61036;53.224;6.554;2023-09-30T03:52:09;102374.59;;;18.23;100.00
72896;BME280;61036;53.224;6.554;2023-09-30T03:54:35;102382.41;;;18.27;100.00
72896;BME280;61036;53.224;6.554;2023-09-30T03:57:01;102380.56;;;18.17;100.00
72896;BME280;61036;53.224;6.554;2023-09-30T03:59:26;102382.94;;;17.99;100.00
72896;BME280;61036;53.224;6.554;2023-09-30T04:01:53;102384.34;;;17.93;100.00
72896;BME280;61036;53.224;6.554;2023-09-30T04:04:19;102375.75;;;18.20;100.00
72896;BME280;61036;53.224;6.554;2023-09-30T04:06:46;102376.00;;;18.17;100.00
72896;BME280;61036;53.224;6.554;2023-09-30T04:09:13;102379.53;;;18.29;100.00
72896;BME280;61036;53.224;6.554;2023-09-30T04:11:39;102381.56;;;18.16;100.00
72896;BME280;61036;53.224;6.554;2023-09-30T04:14:06;102381.47;;;18.17;100.00
72896;BME280;61036;53.224;6.554;2023-09-30T04:16:33;102384.66;;;18.22;100.00
72896;BME280;61036;53.224;6.554;2023-09-30T04:18:58;102377.28;;;17.91;100.00
72896;BME280;61036;53.224;6.554;2023-09-30T04:21:24;102375.75;;;17.98;100.00
72896;BME280;61036;53.224;6.554;2023-09-30T04:23:52;102375.38;;;18.14;100.00
72896;BME280;61036;53.224;6.554;2023-09-30T04:26:18;102372.28;;;17.96;100.00
72896;BME280;61036;53.224;6.554;2023-09-30T04:28:43;102367.81;;;18.06;100.00
72896;BME280;61036;53.224;6.554;2023-09-30T04:31:09;102372.69;;;18.02;100.00
72896;BME280;61036;53.224;6.554;2023-09-30T04:33:35;102372.16;;;18.09;100.00
72896;BME280;61036;53.224;6.554;2023-09-30T04:36:01;102377.13;;;18.15;100.00
72896;BME280;61036;53.224;6.554;2023-09-30T04:38:27;102388.44;;;17.88;100.00
72896;BME280;61036;53.224;6.554;2023-09-30T04:40:52;102381.56;;;18.16;100.00
72896;BME280;61036;53.224;6.554;2023-09-30T04:43:20;102394.59;;;18.23;100.00
72896;BME280;61036;53.224;6.554;2023-09-30T04:45:48;102396.25;;;18.03;100.00
72896;BME280;61036;53.224;6.554;2023-09-30T04:48:17;102395.72;;;18.10;100.00
72896;BME280;61036;53.224;6.554;2023-09-30T04:50:43;102399.59;;;17.96;100.00
72896;BME280;61036;53.224;6.554;2023-09-30T04:53:08;102401.28;;;17.74;100.00
72896;BME280;61036;53.224;6.554;2023-09-30T04:55:34;102416.19;;;17.70;100.00
72896;BME280;61036;53.224;6.554;2023-09-30T04:58:00;102409.41;;;17.87;100.00
72896;BME280;61036;53.224;6.554;2023-09-30T05:00:25;102422.00;;;17.66;100.00
72896;BME280;61036;53.224;6.554;2023-09-30T05:02:55;102417.56;;;17.98;100.00
72896;BME280;61036;53.224;6.554;2023-09-30T05:05:20;102425.53;;;17.79;100.00
72896;BME280;61036;53.224;6.554;2023-09-30T05:07:46;102428.63;;;17.86;100.00
72896;BME280;61036;53.224;6.554;2023-09-30T05:10:13;102427.13;;;17.93;100.00
72896;BME280;61036;53.224;6.554;2023-09-30T05:12:44;102434.41;;;17.70;100.00
72896;BME280;61036;53.224;6.554;2023-09-30T05:15:14;102438.22;;;17.56;100.00
72896;BME280;61036;53.224;6.554;2023-09-30T05:17:47;102442.41;;;17.84;100.00
72896;BME280;61036;53.224;6.554;2023-09-30T05:20:14;102434.16;;;17.62;100.00
72896;BME280;61036;53.224;6.554;2023-09-30T05:22:42;102447.78;;;17.62;100.00
72896;BME280;61036;53.224;6.554;2023-09-30T05:25:14;102446.31;;;17.69;100.00
72896;BME280;61036;53.224;6.554;2023-09-30T05:27:44;102448.78;;;17.60;100.00
72896;BME280;61036;53.224;6.554;2023-09-30T05:30:10;102443.66;;;17.45;100.00
72896;BME280;61036;53.224;6.554;2023-09-30T05:32:37;102443.72;;;17.67;100.00
72896;BME280;61036;53.224;6.554;2023-09-30T05:35:05;102441.03;;;17.78;100.00
72896;BME280;61036;53.224;6.554;2023-09-30T05:37:31;102438.84;;;17.59;100.00
72896;BME280;61036;53.224;6.554;2023-09-30T05:39:57;102450.41;;;17.63;100.00
72896;BME280;61036;53.224;6.554;2023-09-30T05:42:23;102446.66;;;17.53;100.00
72896;BME280;61036;53.224;6.554;2023-09-30T05:44:48;102445.75;;;17.41;100.00
72896;BME280;61036;53.224;6.554;2023-09-30T05:47:14;102437.59;;;17.30;100.00
72896;BME280;61036;53.224;6.554;2023-09-30T05:49:41;102449.22;;;17.32;100.00
72896;BME280;61036;53.224;6.554;2023-09-30T05:52:07;102445.16;;;17.37;100.00
72896;BME280;61036;53.224;6.554;2023-09-30T05:54:32;102450.44;;;17.28;100.00
72896;BME280;61036;53.224;6.554;2023-09-30T05:56:58;102461.66;;;17.36;100.00
72896;BME280;61036;53.224;6.554;2023-09-30T05:59:25;102455.59;;;17.55;100.00
72896;BME280;61036;53.224;6.554;2023-09-30T06:01:51;102452.75;;;17.45;100.00
72896;BME280;61036;53.224;6.554;2023-09-30T06:04:17;102459.34;;;17.54;100.00
72896;BME280;61036;53.224;6.554;2023-09-30T06:06:42;102459.06;;;17.46;100.00
72896;BME280;61036;53.224;6.554;2023-09-30T06:09:08;102459.72;;;17.60;100.00
72896;BME280;61036;53.224;6.554;2023-09-30T06:11:33;102454.63;;;17.67;100.00
72896;BME280;61036;53.224;6.554;2023-09-30T06:14:01;102465.56;;;17.32;100.00
72896;BME280;61036;53.224;6.554;2023-09-30T06:16:27;102463.22;;;17.38;100.00
72896;BME280;61036;53.224;6.554;2023-09-30T06:18:53;102469.81;;;17.36;100.00
72896;BME280;61036;53.224;6.554;2023-09-30T06:21:21;102467.63;;;17.52;100.00
72896;BME280;61036;53.224;6.554;2023-09-30T06:23:47;102464.38;;;17.36;100.00
72896;BME280;61036;53.224;6.554;2023-09-30T06:26:14;102472.75;;;17.22;100.00
72896;BME280;61036;53.224;6.554;2023-09-30T06:28:42;102474.41;;;17.47;100.00
72896;BME280;61036;53.224;6.554;2023-09-30T06:31:08;102468.63;;;17.63;100.00
72896;BME280;61036;53.224;6.554;2023-09-30T06:33:37;102469.69;;;18.07;100.00
72896;BME280;61036;53.224;6.554;2023-09-30T06:36:10;102476.75;;;18.32;100.00
72896;BME280;61036;53.224;6.554;2023-09-30T06:38:37;102478.56;;;17.75;100.00
72896;BME280;61036;53.224;6.554;2023-09-30T06:41:03;102485.78;;;17.76;100.00
72896;BME280;61036;53.224;6.554;2023-09-30T06:43:29;102482.81;;;17.32;100.00
72896;BME280;61036;53.224;6.554;2023-09-30T06:45:54;102488.19;;;17.92;100.00
72896;BME280;61036;53.224;6.554;2023-09-30T06:48:21;102498.38;;;18.12;100.00
72896;BME280;61036;53.224;6.554;2023-09-30T06:50:48;102491.44;;;18.08;100.00
72896;BME280;61036;53.224;6.554;2023-09-30T06:53:17;102492.16;;;18.33;100.00
72896;BME280;61036;53.224;6.554;2023-09-30T06:55:44;102498.72;;;18.08;100.00
72896;BME280;61036;53.224;6.554;2023-09-30T06:58:09;102503.47;;;18.05;100.00
72896;BME280;61036;53.224;6.554;2023-09-30T07:00:41;102516.84;;;18.54;100.00
72896;BME280;61036;53.224;6.554;2023-09-30T07:03:09;102514.13;;;18.42;100.00
72896;BME280;61036;53.224;6.554;2023-09-30T07:05:37;102514.69;;;18.80;100.00
72896;BME280;61036;53.224;6.554;2023-09-30T07:08:05;102509.25;;;18.57;100.00
72896;BME280;61036;53.224;6.554;2023-09-30T07:10:30;102510.38;;;18.66;100.00
72896;BME280;61036;53.224;6.554;2023-09-30T07:12:57;102520.31;;;18.56;100.00
72896;BME280;61036;53.224;6.554;2023-09-30T07:15:22;102512.19;;;18.88;100.00
72896;BME280;61036;53.224;6.554;2023-09-30T07:17:48;102509.63;;;18.64;100.00
72896;BME280;61036;53.224;6.554;2023-09-30T07:20:14;102524.06;;;19.09;100.00
72896;BME280;61036;53.224;6.554;2023-09-30T07:22:40;102528.41;;;19.12;100.00
72896;BME280;61036;53.224;6.554;2023-09-30T07:25:06;102536.41;;;19.36;100.00
72896;BME280;61036;53.224;6.554;2023-09-30T07:27:32;102545.00;;;19.52;100.00
72896;BME280;61036;53.224;6.554;2023-09-30T07:29:57;102538.69;;;19.52;100.00
72896;BME280;61036;53.224;6.554;2023-09-30T07:32:23;102535.28;;;19.59;100.00
72896;BME280;61036;53.224;6.554;2023-09-30T07:34:49;102548.75;;;19.51;100.00
72896;BME280;61036;53.224;6.554;2023-09-30T07:37:15;102543.09;;;20.06;100.00
72896;BME280;61036;53.224;6.554;2023-09-30T07:39:42;102545.63;;;19.56;100.00
72896;BME280;61036;53.224;6.554;2023-09-30T07:42:09;102544.81;;;20.28;100.00
72896;BME280;61036;53.224;6.554;2023-09-30T07:44:35;102554.63;;;20.30;100.00
72896;BME280;61036;53.224;6.554;2023-09-30T07:47:05;102557.50;;;20.29;100.00
72896;BME280;61036;53.224;6.554;2023-09-30T07:49:38;102561.19;;;20.18;100.00
72896;BME280;61036;53.224;6.554;2023-09-30T07:52:03;102552.41;;;20.86;100.00
72896;BME280;61036;53.224;6.554;2023-09-30T07:54:29;102553.09;;;20.78;100.00
72896;BME280;61036;53.224;6.554;2023-09-30T07:56:54;102556.28;;;20.43;100.00
72896;BME280;61036;53.224;6.554;2023-09-30T07:59:20;102551.38;;;20.77;100.00
72896;BME280;61036;53.224;6.554;2023-09-30T08:01:47;102559.22;;;21.01;100.00
72896;BME280;61036;53.224;6.554;2023-09-30T08:04:13;102558.63;;;19.75;100.00
72896;BME280;61036;53.224;6.554;2023-09-30T08:06:39;102561.19;;;20.80;100.00
72896;BME280;61036;53.224;6.554;2023-09-30T08:09:05;102562.00;;;21.30;100.00
72896;BME280;61036;53.224;6.554;2023-09-30T08:11:36;102559.69;;;20.66;100.00
72896;BME280;61036;53.224;6.554;2023-09-30T08:14:05;102559.84;;;21.34;100.00
72896;BME280;61036;53.224;6.554;2023-09-30T08:16:35;102552.31;;;21.26;100.00
72896;BME280;61036;53.224;6.554;2023-09-30T08:19:02;102547.72;;;21.75;100.00
72896;BME280;61036;53.224;6.554;2023-09-30T08:21:28;102551.31;;;22.42;100.00
72896;BME280;61036;53.224;6.554;2023-09-30T08:23:54;102554.66;;;22.36;100.00
72896;BME280;61036;53.224;6.554;2023-09-30T08:26:20;102552.16;;;21.86;100.00
72896;BME280;61036;53.224;6.554;2023-09-30T08:28:45;102562.88;;;21.60;100.00
72896;BME280;61036;53.224;6.554;2023-09-30T08:31:11;102558.84;;;21.44;100.00
72896;BME280;61036;53.224;6.554;2023-09-30T08:33:37;102548.31;;;21.50;100.00
72896;BME280;61036;53.224;6.554;2023-09-30T08:36:05;102556.59;;;22.06;100.00
72896;BME280;61036;53.224;6.554;2023-09-30T08:38:35;102550.50;;;22.22;100.00
72896;BME280;61036;53.224;6.554;2023-09-30T08:41:01;102561.06;;;23.10;100.00
72896;BME280;61036;53.224;6.554;2023-09-30T08:43:27;102557.31;;;23.11;100.00
72896;BME280;61036;53.224;6.554;2023-09-30T08:45:56;102560.59;;;22.69;100.00
72896;BME280;61036;53.224;6.554;2023-09-30T08:48:23;102559.38;;;23.80;100.00
72896;BME280;61036;53.224;6.554;2023-09-30T08:50:51;102558.34;;;24.07;100.00
72896;BME280;61036;53.224;6.554;2023-09-30T08:53:17;102568.91;;;23.32;100.00
72896;BME280;61036;53.224;6.554;2023-09-30T08:55:46;102572.34;;;23.34;100.00
72896;BME280;61036;53.224;6.554;2023-09-30T08:58:13;102566.75;;;23.08;100.00
72896;BME280;61036;53.224;6.554;2023-09-30T09:00:39;102569.25;;;23.19;100.00
72896;BME280;61036;53.224;6.554;2023-09-30T09:03:07;102563.44;;;23.76;100.00
72896;BME280;61036;53.224;6.554;2023-09-30T09:05:33;102569.66;;;23.24;100.00
72896;BME280;61036;53.224;6.554;2023-09-30T09:07:58;102571.41;;;23.08;100.00
72896;BME280;61036;53.224;6.554;2023-09-30T09:10:25;102574.53;;;23.48;100.00
72896;BME280;61036;53.224;6.554;2023-09-30T09:12:59;102570.16;;;24.00;100.00
72896;BME280;61036;53.224;6.554;2023-09-30T09:15:26;102569.47;;;23.98;100.00
72896;BME280;61036;53.224;6.554;2023-09-30T09:17:54;102564.78;;;23.54;100.00
72896;BME280;61036;53.224;6.554;2023-09-30T09:20:22;102572.09;;;24.33;100.00
72896;BME280;61036;53.224;6.554;2023-09-30T09:22:49;102563.63;;;24.01;100.00
72896;BME280;61036;53.224;6.554;2023-09-30T09:25:20;102569.97;;;24.19;100.00
72896;BME280;61036;53.224;6.554;2023-09-30T09:27:48;102571.41;;;24.31;100.00
72896;BME280;61036;53.224;6.554;2023-09-30T09:30:15;102576.91;;;23.79;100.00
72896;BME280;61036;53.224;6.554;2023-09-30T09:32:52;102571.94;;;24.09;100.00
72896;BME280;61036;53.224;6.554;2023-09-30T09:35:22;102588.53;;;23.55;100.00
72896;BME280;61036;53.224;6.554;2023-09-30T09:38:01;102590.00;;;24.03;100.00
72896;BME280;61036;53.224;6.554;2023-09-30T09:40:28;102595.94;;;23.90;100.00
72896;BME280;61036;53.224;6.554;2023-09-30T09:42:55;102595.00;;;24.26;100.00
72896;BME280;61036;53.224;6.554;2023-09-30T09:45:22;102579.91;;;24.72;100.00
72896;BME280;61036;53.224;6.554;2023-09-30T09:47:48;102589.34;;;24.09;100.00
72896;BME280;61036;53.224;6.554;2023-09-30T09:50:14;102587.91;;;23.43;100.00
72896;BME280;61036;53.224;6.554;2023-09-30T09:52:41;102581.19;;;25.37;100.00
72896;BME280;61036;53.224;6.554;2023-09-30T09:55:10;102583.91;;;24.78;100.00
72896;BME280;61036;53.224;6.554;2023-09-30T09:57:36;102592.56;;;24.49;100.00
72896;BME280;61036;53.224;6.554;2023-09-30T10:00:03;102592.41;;;25.60;100.00
72896;BME280;61036;53.224;6.554;2023-09-30T10:02:35;102601.91;;;25.49;100.00
72896;BME280;61036;53.224;6.554;2023-09-30T10:05:02;102608.66;;;25.87;100.00
72896;BME280;61036;53.224;6.554;2023-09-30T10:07:33;102602.72;;;25.25;100.00
72896;BME280;61036;53.224;6.554;2023-09-30T10:10:01;102603.94;;;24.80;100.00
72896;BME280;61036;53.224;6.554;2023-09-30T10:12:28;102614.03;;;23.93;100.00
72896;BME280;61036;53.224;6.554;2023-09-30T10:15:00;102608.59;;;24.27;100.00
72896;BME280;61036;53.224;6.554;2023-09-30T10:20:33;102613.94;;;24.03;100.00
72896;BME280;61036;53.224;6.554;2023-09-30T10:23:18;102603.97;;;24.96;100.00
72896;BME280;61036;53.224;6.554;2023-09-30T10:25:48;102594.94;;;24.78;100.00
72896;BME280;61036;53.224;6.554;2023-09-30T10:31:08;102598.13;;;24.99;100.00
72896;BME280;61036;53.224;6.554;2023-09-30T10:33:35;102596.72;;;24.53;100.00
72896;BME280;61036;53.224;6.554;2023-09-30T10:36:01;102599.84;;;24.92;100.00
72896;BME280;61036;53.224;6.554;2023-09-30T10:41:00;102606.50;;;24.81;100.00
72896;BME280;61036;53.224;6.554;2023-09-30T10:46:00;102605.06;;;25.03;100.00
72896;BME280;61036;53.224;6.554;2023-09-30T10:50:53;102603.09;;;25.38;100.00
72896;BME280;61036;53.224;6.554;2023-09-30T10:53:22;102610.72;;;25.69;100.00
72896;BME280;61036;53.224;6.554;2023-09-30T10:55:55;102607.91;;;25.36;100.00
72896;BME280;61036;53.224;6.554;2023-09-30T10:58:42;102613.00;;;25.82;100.00
72896;BME280;61036;53.224;6.554;2023-09-30T11:01:08;102605.38;;;26.16;100.00
72896;BME280;61036;53.224;6.554;2023-09-30T11:03:34;102593.44;;;26.16;100.00
72896;BME280;61036;53.224;6.554;2023-09-30T11:06:00;102589.78;;;26.32;100.00
72896;BME280;61036;53.224;6.554;2023-09-30T11:08:28;102583.94;;;25.77;100.00
72896;BME280;61036;53.224;6.554;2023-09-30T11:10:55;102591.13;;;24.18;100.00
72896;BME280;61036;53.224;6.554;2023-09-30T11:13:22;102580.66;;;25.41;100.00
72896;BME280;61036;53.224;6.554;2023-09-30T11:15:59;102596.56;;;25.39;100.00
72896;BME280;61036;53.224;6.554;2023-09-30T11:18:25;102592.22;;;24.86;100.00
72896;BME280;61036;53.224;6.554;2023-09-30T11:21:03;102579.91;;;24.72;100.00
72896;BME280;61036;53.224;6.554;2023-09-30T11:23:29;102578.63;;;24.50;100.00
72896;BME280;61036;53.224;6.554;2023-09-30T11:25:56;102578.66;;;25.09;100.00
72896;BME280;61036;53.224;6.554;2023-09-30T11:28:21;102568.00;;;25.14;100.00
72896;BME280;61036;53.224;6.554;2023-09-30T11:31:00;102572.56;;;24.89;100.00
72896;BME280;61036;53.224;6.554;2023-09-30T11:33:28;102563.56;;;24.79;100.00
72896;BME280;61036;53.224;6.554;2023-09-30T11:36:00;102566.56;;;25.02;100.00
72896;BME280;61036;53.224;6.554;2023-09-30T11:38:28;102572.53;;;24.81;100.00
72896;BME280;61036;53.224;6.554;2023-09-30T11:41:05;102571.41;;;24.57;100.00
72896;BME280;61036;53.224;6.554;2023-09-30T11:43:35;102567.69;;;24.40;100.00
72896;BME280;61036;53.224;6.554;2023-09-30T11:48:31;102569.38;;;24.07;100.00
72896;BME280;61036;53.224;6.554;2023-09-30T11:50:58;102574.31;;;24.30;100.00
72896;BME280;61036;53.224;6.554;2023-09-30T11:53:25;102575.81;;;23.72;100.00
72896;BME280;61036;53.224;6.554;2023-09-30T11:55:51;102580.44;;;23.54;100.00
72896;BME280;61036;53.224;6.554;2023-09-30T11:58:20;102580.06;;;23.84;100.00
72896;BME280;61036;53.224;6.554;2023-09-30T12:00:45;102581.63;;;23.69;100.00
72896;BME280;61036;53.224;6.554;2023-09-30T12:03:11;102579.81;;;23.60;100.00
72896;BME280;61036;53.224;6.554;2023-09-30T12:05:36;102581.09;;;24.09;100.00
72896;BME280;61036;53.224;6.554;2023-09-30T12:08:02;102586.22;;;24.30;100.00
72896;BME280;61036;53.224;6.554;2023-09-30T12:10:28;102581.22;;;24.34;100.00
72896;BME280;61036;53.224;6.554;2023-09-30T12:12:53;102587.19;;;24.21;100.00
72896;BME280;61036;53.224;6.554;2023-09-30T12:15:19;102576.09;;;24.65;100.00
72896;BME280;61036;53.224;6.554;2023-09-30T12:17:45;102579.72;;;24.66;100.00
72896;BME280;61036;53.224;6.554;2023-09-30T12:20:11;102576.56;;;25.03;100.00
72896;BME280;61036;53.224;6.554;2023-09-30T12:22:39;102571.31;;;25.26;100.00
72896;BME280;61036;53.224;6.554;2023-09-30T12:25:06;102574.78;;;25.44;100.00
72896;BME280;61036;53.224;6.554;2023-09-30T12:27:34;102583.03;;;25.20;100.00
72896;BME280;61036;53.224;6.554;2023-09-30T12:29:59;102573.06;;;25.76;100.00
72896;BME280;61036;53.224;6.554;2023-09-30T12:32:29;102564.28;;;25.97;100.00
72896;BME280;61036;53.224;6.554;2023-09-30T12:34:55;102572.72;;;25.46;100.00
72896;BME280;61036;53.224;6.554;2023-09-30T12:37:20;102574.78;;;25.44;100.00
72896;BME280;61036;53.224;6.554;2023-09-30T12:39:46;102577.38;;;24.87;100.00
72896;BME280;61036;53.224;6.554;2023-09-30T12:42:12;102570.09;;;24.78;100.00
72896;BME280;61036;53.224;6.554;2023-09-30T12:44:39;102575.72;;;24.60;100.00
72896;BME280;61036;53.224;6.554;2023-09-30T12:47:05;102574.63;;;24.45;100.00
72896;BME280;61036;53.224;6.554;2023-09-30T12:49:31;102577.28;;;24.36;100.00
72896;BME280;61036;53.224;6.554;2023-09-30T12:51:56;102569.66;;;24.22;100.00
72896;BME280;61036;53.224;6.554;2023-09-30T12:54:24;102550.31;;;24.82;100.00
72896;BME280;61036;53.224;6.554;2023-09-30T12:56:50;102542.38;;;24.87;100.00